Grand Bay, Canada
Current Conditions -  °F | °C
As of 9:00 PM on Monday 20 Oct 2014 (Local Time) from CYSJ Reporting Station
Clear Clear  
Wind Chill: 36°   Ceiling: Unl
Heat Index: 41°   Visibility: 15mi
Dew Point: 28°   Wind: 7mph
Humidity: 61%   Direction: 240°WSW
Pressure: 29.93"   Gusts: NA
Location:  45.3°N, 66.2°W
Report Text: CYSJ 210000Z 24006KT 15SM SKC 05/M02 A2993 RMK SLP138
Loading
Personal Weather Stations






























Interactive Weather Map
Tropical Storm Tracking
New forecast layout! Learn more

10-Day Weather Forecast

Advertisements
Track Severe Weather on mobile